Gordon, Texas
Current Conditions -  °F | °C
As of 6:53 PM on Tuesday 27 Jan 2015 (Local Time) from KMWL Reporting Station
Clear Clear  
Wind Chill: 67°   Ceiling: Unl
Heat Index: 67°   Visibility: 10mi
Dew Point: 36°   Wind: 7mph
Humidity: 32%   Direction: 140°SE
Pressure: 30.09"   Gusts: NA
Location:  32.55°N, 98.37°W
Report Text: KMWL 280053Z AUTO 14006KT 10SM CLR 19/02 A3009 RMK AO2 SLP186 T01940022
Loading
Personal Weather Stations






























Interactive Weather Map New forecast layout! Learn more

10-Day Weather Forecast

Advertisements
Track Severe Weather on mobile